sensor_id;sensor_type;location;lat;lon;timestamp;temperature;humidity
10316;DHT22;5203;48.976;8.306;2022-12-26T00:01:47;11.40;99.90
10316;DHT22;5203;48.976;8.306;2022-12-26T00:04:14;11.40;99.90
10316;DHT22;5203;48.976;8.306;2022-12-26T00:06:41;11.40;99.90
10316;DHT22;5203;48.976;8.306;2022-12-26T00:09:07;11.40;99.90
10316;DHT22;5203;48.976;8.306;2022-12-26T00:11:33;11.50;99.90
10316;DHT22;5203;48.976;8.306;2022-12-26T00:14:11;11.60;99.60
10316;DHT22;5203;48.976;8.306;2022-12-26T00:16:39;11.60;99.70
10316;DHT22;5203;48.976;8.306;2022-12-26T00:19:06;11.60;99.40
10316;DHT22;5203;48.976;8.306;2022-12-26T00:21:32;11.60;99.90
10316;DHT22;5203;48.976;8.306;2022-12-26T00:23:59;11.60;99.90
10316;DHT22;5203;48.976;8.306;2022-12-26T00:26:28;11.60;99.90
10316;DHT22;5203;48.976;8.306;2022-12-26T00:28:55;11.50;99.90
10316;DHT22;5203;48.976;8.306;2022-12-26T00:31:24;11.60;99.90
10316;DHT22;5203;48.976;8.306;2022-12-26T00:33:50;11.70;99.50
10316;DHT22;5203;48.976;8.306;2022-12-26T00:36:26;11.80;99.20
10316;DHT22;5203;48.976;8.306;2022-12-26T00:38:53;11.80;99.00
10316;DHT22;5203;48.976;8.306;2022-12-26T00:41:20;11.70;99.70
10316;DHT22;5203;48.976;8.306;2022-12-26T00:43:46;11.70;99.40
10316;DHT22;5203;48.976;8.306;2022-12-26T00:46:13;11.80;99.30
10316;DHT22;5203;48.976;8.306;2022-12-26T00:48:39;11.80;99.50
10316;DHT22;5203;48.976;8.306;2022-12-26T00:51:05;11.80;98.80
10316;DHT22;5203;48.976;8.306;2022-12-26T00:53:32;11.90;99.00
10316;DHT22;5203;48.976;8.306;2022-12-26T00:55:58;11.80;99.30
10316;DHT22;5203;48.976;8.306;2022-12-26T00:58:24;11.90;98.40
10316;DHT22;5203;48.976;8.306;2022-12-26T01:00:50;11.90;98.80
10316;DHT22;5203;48.976;8.306;2022-12-26T01:03:16;11.90;98.20
10316;DHT22;5203;48.976;8.306;2022-12-26T01:05:45;11.90;99.10
10316;DHT22;5203;48.976;8.306;2022-12-26T01:08:11;11.90;99.30
10316;DHT22;5203;48.976;8.306;2022-12-26T01:10:40;12.00;98.10
10316;DHT22;5203;48.976;8.306;2022-12-26T01:13:06;12.30;97.80
10316;DHT22;5203;48.976;8.306;2022-12-26T01:15:32;12.20;96.60
10316;DHT22;5203;48.976;8.306;2022-12-26T01:17:58;12.30;96.80
10316;DHT22;5203;48.976;8.306;2022-12-26T01:20:25;12.30;96.80
10316;DHT22;5203;48.976;8.306;2022-12-26T01:22:51;12.30;97.30
10316;DHT22;5203;48.976;8.306;2022-12-26T01:25:17;12.20;97.30
10316;DHT22;5203;48.976;8.306;2022-12-26T01:27:43;12.30;97.30
10316;DHT22;5203;48.976;8.306;2022-12-26T01:30:10;12.30;96.70
10316;DHT22;5203;48.976;8.306;2022-12-26T01:32:39;12.20;96.90
10316;DHT22;5203;48.976;8.306;2022-12-26T01:35:05;12.30;96.20
10316;DHT22;5203;48.976;8.306;2022-12-26T01:37:30;12.20;97.20
10316;DHT22;5203;48.976;8.306;2022-12-26T01:39:58;12.20;97.10
10316;DHT22;5203;48.976;8.306;2022-12-26T01:42:25;12.30;95.80
10316;DHT22;5203;48.976;8.306;2022-12-26T01:48:33;12.20;96.90
10316;DHT22;5203;48.976;8.306;2022-12-26T01:50:37;12.40;94.60
10316;DHT22;5203;48.976;8.306;2022-12-26T01:53:18;12.40;95.20
10316;DHT22;5203;48.976;8.306;2022-12-26T01:55:49;12.50;94.20
10316;DHT22;5203;48.976;8.306;2022-12-26T01:58:22;12.60;93.60
10316;DHT22;5203;48.976;8.306;2022-12-26T02:00:50;12.60;93.90
10316;DHT22;5203;48.976;8.306;2022-12-26T02:03:16;12.50;94.30
10316;DHT22;5203;48.976;8.306;2022-12-26T02:06:01;12.60;94.30
10316;DHT22;5203;48.976;8.306;2022-12-26T02:08:31;12.50;94.60
10316;DHT22;5203;48.976;8.306;2022-12-26T02:13:45;12.40;95.50
10316;DHT22;5203;48.976;8.306;2022-12-26T02:16:13;12.30;95.80
10316;DHT22;5203;48.976;8.306;2022-12-26T02:18:39;12.30;95.40
10316;DHT22;5203;48.976;8.306;2022-12-26T02:21:17;12.30;95.50
10316;DHT22;5203;48.976;8.306;2022-12-26T02:36:45;12.60;93.70
10316;DHT22;5203;48.976;8.306;2022-12-26T02:38:51;12.50;94.60
10316;DHT22;5203;48.976;8.306;2022-12-26T02:44:43;12.60;93.80
10316;DHT22;5203;48.976;8.306;2022-12-26T02:53:30;12.60;95.10
10316;DHT22;5203;48.976;8.306;2022-12-26T02:56:43;12.50;95.60
10316;DHT22;5203;48.976;8.306;2022-12-26T03:02:36;12.50;95.90
10316;DHT22;5203;48.976;8.306;2022-12-26T03:05:40;12.60;95.20
10316;DHT22;5203;48.976;8.306;2022-12-26T03:08:33;12.60;96.00
10316;DHT22;5203;48.976;8.306;2022-12-26T03:11:18;12.50;96.10
10316;DHT22;5203;48.976;8.306;2022-12-26T03:14:31;12.60;95.50
10316;DHT22;5203;48.976;8.306;2022-12-26T03:17:02;12.60;95.40
10316;DHT22;5203;48.976;8.306;2022-12-26T03:19:46;12.60;95.20
10316;DHT22;5203;48.976;8.306;2022-12-26T03:22:30;12.60;95.80
10316;DHT22;5203;48.976;8.306;2022-12-26T03:24:59;12.50;96.50
10316;DHT22;5203;48.976;8.306;2022-12-26T03:27:46;12.40;96.30
10316;DHT22;5203;48.976;8.306;2022-12-26T03:30:12;12.50;96.50
10316;DHT22;5203;48.976;8.306;2022-12-26T03:32:56;12.50;96.40
10316;DHT22;5203;48.976;8.306;2022-12-26T03:35:23;12.30;97.10
10316;DHT22;5203;48.976;8.306;2022-12-26T03:40:45;12.50;96.00
10316;DHT22;5203;48.976;8.306;2022-12-26T03:43:58;12.50;95.50
10316;DHT22;5203;48.976;8.306;2022-12-26T03:47:01;12.40;95.90
10316;DHT22;5203;48.976;8.306;2022-12-26T03:49:52;12.40;95.70
10316;DHT22;5203;48.976;8.306;2022-12-26T03:59:02;12.40;95.70
10316;DHT22;5203;48.976;8.306;2022-12-26T04:01:48;12.50;94.60
10316;DHT22;5203;48.976;8.306;2022-12-26T04:04:36;12.60;93.90
10316;DHT22;5203;48.976;8.306;2022-12-26T04:07:27;12.60;93.30
10316;DHT22;5203;48.976;8.306;2022-12-26T04:10:31;12.60;94.00
10316;DHT22;5203;48.976;8.306;2022-12-26T04:13:23;12.70;92.90
10316;DHT22;5203;48.976;8.306;2022-12-26T04:16:15;12.70;92.80
10316;DHT22;5203;48.976;8.306;2022-12-26T04:25:10;12.80;92.10
10316;DHT22;5203;48.976;8.306;2022-12-26T04:27:55;12.80;92.10
10316;DHT22;5203;48.976;8.306;2022-12-26T04:30:40;12.80;92.00
10316;DHT22;5203;48.976;8.306;2022-12-26T04:33:33;12.80;92.00
10316;DHT22;5203;48.976;8.306;2022-12-26T04:36:32;12.90;91.20
10316;DHT22;5203;48.976;8.306;2022-12-26T04:39:20;12.90;91.70
10316;DHT22;5203;48.976;8.306;2022-12-26T04:42:07;13.00;91.10
10316;DHT22;5203;48.976;8.306;2022-12-26T04:44:53;12.90;92.00
10316;DHT22;5203;48.976;8.306;2022-12-26T04:47:20;13.00;91.10
10316;DHT22;5203;48.976;8.306;2022-12-26T04:49:46;13.00;91.00
10316;DHT22;5203;48.976;8.306;2022-12-26T04:52:31;13.10;91.10
10316;DHT22;5203;48.976;8.306;2022-12-26T04:55:16;13.00;92.20
10316;DHT22;5203;48.976;8.306;2022-12-26T04:57:42;12.90;93.60
10316;DHT22;5203;48.976;8.306;2022-12-26T05:00:14;12.90;95.80
10316;DHT22;5203;48.976;8.306;2022-12-26T05:02:40;12.70;98.60
10316;DHT22;5203;48.976;8.306;2022-12-26T05:05:24;12.60;99.90
10316;DHT22;5203;48.976;8.306;2022-12-26T05:08:23;12.50;99.90
10316;DHT22;5203;48.976;8.306;2022-12-26T05:11:09;12.20;99.90
10316;DHT22;5203;48.976;8.306;2022-12-26T05:13:37;12.10;99.90
10316;DHT22;5203;48.976;8.306;2022-12-26T05:16:03;12.20;99.90
10316;DHT22;5203;48.976;8.306;2022-12-26T05:18:48;12.00;99.90
10316;DHT22;5203;48.976;8.306;2022-12-26T05:21:32;11.90;99.90
10316;DHT22;5203;48.976;8.306;2022-12-26T05:24:19;11.90;99.90
10316;DHT22;5203;48.976;8.306;2022-12-26T05:30:18;11.90;99.90
10316;DHT22;5203;48.976;8.306;2022-12-26T05:33:18;11.90;99.90
10316;DHT22;5203;48.976;8.306;2022-12-26T05:36:25;11.80;99.90
10316;DHT22;5203;48.976;8.306;2022-12-26T05:38:58;11.90;99.90
10316;DHT22;5203;48.976;8.306;2022-12-26T05:41:25;12.10;99.90
10316;DHT22;5203;48.976;8.306;2022-12-26T05:44:03;12.20;99.90
10316;DHT22;5203;48.976;8.306;2022-12-26T05:46:38;12.10;99.90
10316;DHT22;5203;48.976;8.306;2022-12-26T05:49:14;12.00;99.90
10316;DHT22;5203;48.976;8.306;2022-12-26T05:51:47;12.10;99.90
10316;DHT22;5203;48.976;8.306;2022-12-26T05:54:21;12.00;99.90
10316;DHT22;5203;48.976;8.306;2022-12-26T05:56:57;12.00;99.90
10316;DHT22;5203;48.976;8.306;2022-12-26T05:59:46;11.90;99.90
10316;DHT22;5203;48.976;8.306;2022-12-26T06:02:34;12.00;99.90
10316;DHT22;5203;48.976;8.306;2022-12-26T06:05:28;12.10;99.90
10316;DHT22;5203;48.976;8.306;2022-12-26T06:08:20;12.10;99.90
10316;DHT22;5203;48.976;8.306;2022-12-26T06:10:50;12.20;99.90
10316;DHT22;5203;48.976;8.306;2022-12-26T06:13:19;12.40;99.90
10316;DHT22;5203;48.976;8.306;2022-12-26T06:15:56;12.40;99.90
10316;DHT22;5203;48.976;8.306;2022-12-26T06:18:23;12.40;99.90
10316;DHT22;5203;48.976;8.306;2022-12-26T06:20:58;12.50;99.90
10316;DHT22;5203;48.976;8.306;2022-12-26T06:23:26;12.40;99.90
10316;DHT22;5203;48.976;8.306;2022-12-26T06:26:04;12.30;99.90
10316;DHT22;5203;48.976;8.306;2022-12-26T06:28:57;12.30;99.90
10316;DHT22;5203;48.976;8.306;2022-12-26T06:35:23;12.30;99.90
10316;DHT22;5203;48.976;8.306;2022-12-26T06:37:56;12.20;99.90
10316;DHT22;5203;48.976;8.306;2022-12-26T06:40:22;12.10;99.90
10316;DHT22;5203;48.976;8.306;2022-12-26T06:46:29;11.80;99.90
10316;DHT22;5203;48.976;8.306;2022-12-26T06:49:13;11.70;99.90
10316;DHT22;5203;48.976;8.306;2022-12-26T06:51:55;11.60;99.90
10316;DHT22;5203;48.976;8.306;2022-12-26T06:54:26;11.50;99.90
10316;DHT22;5203;48.976;8.306;2022-12-26T06:57:21;11.40;99.90
10316;DHT22;5203;48.976;8.306;2022-12-26T07:00:29;11.40;99.90
10316;DHT22;5203;48.976;8.306;2022-12-26T07:03:19;11.40;99.90
10316;DHT22;5203;48.976;8.306;2022-12-26T07:16:58;11.10;99.90
10316;DHT22;5203;48.976;8.306;2022-12-26T07:38:57;11.20;99.90
10316;DHT22;5203;48.976;8.306;2022-12-26T07:41:39;11.30;99.90
10316;DHT22;5203;48.976;8.306;2022-12-26T07:44:25;11.30;99.90
10316;DHT22;5203;48.976;8.306;2022-12-26T07:46:51;11.20;99.90
10316;DHT22;5203;48.976;8.306;2022-12-26T07:49:17;11.20;99.90
10316;DHT22;5203;48.976;8.306;2022-12-26T07:51:43;11.10;99.90
10316;DHT22;5203;48.976;8.306;2022-12-26T07:54:09;11.10;99.90
10316;DHT22;5203;48.976;8.306;2022-12-26T07:56:35;11.10;99.90
10316;DHT22;5203;48.976;8.306;2022-12-26T07:59:01;11.00;99.90
10316;DHT22;5203;48.976;8.306;2022-12-26T08:01:27;11.00;99.90
10316;DHT22;5203;48.976;8.306;2022-12-26T08:03:53;11.00;99.90
10316;DHT22;5203;48.976;8.306;2022-12-26T08:06:19;11.10;99.90
10316;DHT22;5203;48.976;8.306;2022-12-26T08:08:53;11.00;99.90
10316;DHT22;5203;48.976;8.306;2022-12-26T08:11:21;11.00;99.90
10316;DHT22;5203;48.976;8.306;2022-12-26T08:13:49;11.10;99.90
10316;DHT22;5203;48.976;8.306;2022-12-26T08:16:15;11.10;99.90
10316;DHT22;5203;48.976;8.306;2022-12-26T08:18:42;11.20;99.90
10316;DHT22;5203;48.976;8.306;2022-12-26T08:21:08;11.10;99.90
10316;DHT22;5203;48.976;8.306;2022-12-26T08:23:34;11.20;99.90
10316;DHT22;5203;48.976;8.306;2022-12-26T08:26:08;11.20;99.90
10316;DHT22;5203;48.976;8.306;2022-12-26T08:28:35;11.30;99.90
10316;DHT22;5203;48.976;8.306;2022-12-26T08:31:05;11.30;99.90
10316;DHT22;5203;48.976;8.306;2022-12-26T08:33:31;11.30;99.90
10316;DHT22;5203;48.976;8.306;2022-12-26T08:36:04;11.20;99.90
10316;DHT22;5203;48.976;8.306;2022-12-26T08:38:30;11.30;99.90
10316;DHT22;5203;48.976;8.306;2022-12-26T08:40:56;11.30;99.90
10316;DHT22;5203;48.976;8.306;2022-12-26T08:43:22;11.20;99.90
10316;DHT22;5203;48.976;8.306;2022-12-26T08:46:03;11.20;99.90
10316;DHT22;5203;48.976;8.306;2022-12-26T08:48:30;11.20;99.90
10316;DHT22;5203;48.976;8.306;2022-12-26T08:51:04;11.20;99.90
10316;DHT22;5203;48.976;8.306;2022-12-26T08:53:35;11.20;99.90
10316;DHT22;5203;48.976;8.306;2022-12-26T08:56:28;11.20;99.90
10316;DHT22;5203;48.976;8.306;2022-12-26T09:04:50;11.20;99.90
10316;DHT22;5203;48.976;8.306;2022-12-26T09:15:34;11.10;99.90
10316;DHT22;5203;48.976;8.306;2022-12-26T09:18:00;11.00;99.90
10316;DHT22;5203;48.976;8.306;2022-12-26T09:20:25;10.90;99.90
10316;DHT22;5203;48.976;8.306;2022-12-26T09:22:51;10.90;99.90
10316;DHT22;5203;48.976;8.306;2022-12-26T09:25:19;10.80;99.90
10316;DHT22;5203;48.976;8.306;2022-12-26T09:28:12;10.80;99.90
10316;DHT22;5203;48.976;8.306;2022-12-26T09:33:10;10.80;99.90
10316;DHT22;5203;48.976;8.306;2022-12-26T09:35:40;10.80;99.90
10316;DHT22;5203;48.976;8.306;2022-12-26T09:38:12;10.80;99.90
10316;DHT22;5203;48.976;8.306;2022-12-26T09:43:57;10.90;99.90
10316;DHT22;5203;48.976;8.306;2022-12-26T09:49:27;10.80;99.90
10316;DHT22;5203;48.976;8.306;2022-12-26T10:15:21;10.80;99.90
10316;DHT22;5203;48.976;8.306;2022-12-26T10:18:34;10.80;99.90
10316;DHT22;5203;48.976;8.306;2022-12-26T10:21:34;10.80;99.90
10316;DHT22;5203;48.976;8.306;2022-12-26T10:24:23;10.90;99.90
10316;DHT22;5203;48.976;8.306;2022-12-26T10:33:08;10.90;99.90
10316;DHT22;5203;48.976;8.306;2022-12-26T10:35:43;10.80;99.90
10316;DHT22;5203;48.976;8.306;2022-12-26T10:41:08;10.80;99.90
10316;DHT22;5203;48.976;8.306;2022-12-26T10:43:39;10.90;99.90
10316;DHT22;5203;48.976;8.306;2022-12-26T10:46:40;10.90;99.90
10316;DHT22;5203;48.976;8.306;2022-12-26T10:49:11;10.90;99.90
10316;DHT22;5203;48.976;8.306;2022-12-26T10:51:38;10.90;99.90
10316;DHT22;5203;48.976;8.306;2022-12-26T10:54:14;10.90;99.90
10316;DHT22;5203;48.976;8.306;2022-12-26T10:56:43;11.00;99.90
10316;DHT22;5203;48.976;8.306;2022-12-26T10:59:22;10.90;99.90
10316;DHT22;5203;48.976;8.306;2022-12-26T11:01:48;11.00;99.90
10316;DHT22;5203;48.976;8.306;2022-12-26T11:04:18;10.90;99.90
10316;DHT22;5203;48.976;8.306;2022-12-26T11:06:44;10.90;99.90
10316;DHT22;5203;48.976;8.306;2022-12-26T11:09:41;11.00;99.90
10316;DHT22;5203;48.976;8.306;2022-12-26T11:12:23;11.10;99.90
10316;DHT22;5203;48.976;8.306;2022-12-26T11:14:58;11.10;99.90
10316;DHT22;5203;48.976;8.306;2022-12-26T11:17:28;11.20;99.90
10316;DHT22;5203;48.976;8.306;2022-12-26T11:22:42;11.10;99.90
10316;DHT22;5203;48.976;8.306;2022-12-26T11:27:36;11.20;99.90
10316;DHT22;5203;48.976;8.306;2022-12-26T11:32:46;11.20;99.90
10316;DHT22;5203;48.976;8.306;2022-12-26T11:35:22;11.20;99.90
10316;DHT22;5203;48.976;8.306;2022-12-26T11:37:53;11.20;99.90
10316;DHT22;5203;48.976;8.306;2022-12-26T11:40:26;11.20;99.90
10316;DHT22;5203;48.976;8.306;2022-12-26T11:42:58;11.20;99.90
10316;DHT22;5203;48.976;8.306;2022-12-26T11:45:29;11.20;99.90
10316;DHT22;5203;48.976;8.306;2022-12-26T11:47:58;11.20;99.90
10316;DHT22;5203;48.976;8.306;2022-12-26T11:50:26;11.20;99.90
10316;DHT22;5203;48.976;8.306;2022-12-26T11:58:15;11.30;99.90
10316;DHT22;5203;48.976;8.306;2022-12-26T12:03:36;11.20;99.90
10316;DHT22;5203;48.976;8.306;2022-12-26T12:14:41;11.30;99.90
10316;DHT22;5203;48.976;8.306;2022-12-26T12:20:27;11.40;99.90
10316;DHT22;5203;48.976;8.306;2022-12-26T12:29:07;11.10;99.90
10316;DHT22;5203;48.976;8.306;2022-12-26T12:34:46;11.10;99.90
10316;DHT22;5203;48.976;8.306;2022-12-26T12:40:45;10.90;99.90
10316;DHT22;5203;48.976;8.306;2022-12-26T12:57:21;10.70;99.90
10316;DHT22;5203;48.976;8.306;2022-12-26T13:00:17;10.80;99.90
10316;DHT22;5203;48.976;8.306;2022-12-26T13:08:08;10.90;99.90
10316;DHT22;5203;48.976;8.306;2022-12-26T13:10:42;10.90;99.90
10316;DHT22;5203;48.976;8.306;2022-12-26T13:13:24;10.90;99.90
10316;DHT22;5203;48.976;8.306;2022-12-26T13:15:55;10.90;99.90
10316;DHT22;5203;48.976;8.306;2022-12-26T13:18:28;10.80;99.90
10316;DHT22;5203;48.976;8.306;2022-12-26T13:21:06;10.70;99.90
10316;DHT22;5203;48.976;8.306;2022-12-26T13:23:43;10.80;99.90
10316;DHT22;5203;48.976;8.306;2022-12-26T13:26:36;10.70;99.90
10316;DHT22;5203;48.976;8.306;2022-12-26T13:31:47;10.80;99.90
10316;DHT22;5203;48.976;8.306;2022-12-26T13:34:17;10.80;99.90
10316;DHT22;5203;48.976;8.306;2022-12-26T13:36:49;10.70;99.90
10316;DHT22;5203;48.976;8.306;2022-12-26T13:42:18;10.80;99.90
10316;DHT22;5203;48.976;8.306;2022-12-26T13:48:00;10.90;99.90
10316;DHT22;5203;48.976;8.306;2022-12-26T13:50:51;10.90;99.90
10316;DHT22;5203;48.976;8.306;2022-12-26T13:54:12;10.90;99.90
10316;DHT22;5203;48.976;8.306;2022-12-26T14:00:06;10.90;99.90
10316;DHT22;5203;48.976;8.306;2022-12-26T14:20:40;10.80;99.90
10316;DHT22;5203;48.976;8.306;2022-12-26T14:23:22;10.90;99.90
10316;DHT22;5203;48.976;8.306;2022-12-26T14:36:51;10.70;99.90
10316;DHT22;5203;48.976;8.306;2022-12-26T14:39:37;10.60;99.90
10316;DHT22;5203;48.976;8.306;2022-12-26T14:44:57;10.60;99.90
10316;DHT22;5203;48.976;8.306;2022-12-26T14:50:34;10.70;99.90
10316;DHT22;5203;48.976;8.306;2022-12-26T14:58:47;10.50;99.90
10316;DHT22;5203;48.976;8.306;2022-12-26T15:17:10;10.50;99.90
10316;DHT22;5203;48.976;8.306;2022-12-26T15:20:04;10.40;99.90
10316;DHT22;5203;48.976;8.306;2022-12-26T15:25:55;10.50;99.90
10316;DHT22;5203;48.976;8.306;2022-12-26T15:29:00;10.60;99.90
10316;DHT22;5203;48.976;8.306;2022-12-26T15:32:34;10.50;99.90
10316;DHT22;5203;48.976;8.306;2022-12-26T15:37:25;10.50;99.90
10316;DHT22;5203;48.976;8.306;2022-12-26T15:43:02;10.50;99.90
10316;DHT22;5203;48.976;8.306;2022-12-26T15:45:53;10.50;99.90
10316;DHT22;5203;48.976;8.306;2022-12-26T16:04:56;10.50;99.90
10316;DHT22;5203;48.976;8.306;2022-12-26T16:07:52;10.50;99.90
10316;DHT22;5203;48.976;8.306;2022-12-26T16:15:50;10.50;99.90
10316;DHT22;5203;48.976;8.306;2022-12-26T16:18:19;10.40;99.90
10316;DHT22;5203;48.976;8.306;2022-12-26T16:20:47;10.50;99.90
10316;DHT22;5203;48.976;8.306;2022-12-26T16:23:36;10.60;99.90
10316;DHT22;5203;48.976;8.306;2022-12-26T16:26:03;10.60;99.90
10316;DHT22;5203;48.976;8.306;2022-12-26T16:28:41;10.60;99.90
10316;DHT22;5203;48.976;8.306;2022-12-26T16:31:08;10.70;99.90
10316;DHT22;5203;48.976;8.306;2022-12-26T16:33:40;10.60;99.90
10316;DHT22;5203;48.976;8.306;2022-12-26T16:36:08;10.70;99.90
10316;DHT22;5203;48.976;8.306;2022-12-26T16:38:35;10.50;99.90
10316;DHT22;5203;48.976;8.306;2022-12-26T16:41:17;10.50;99.90
10316;DHT22;5203;48.976;8.306;2022-12-26T16:43:43;10.50;99.90
10316;DHT22;5203;48.976;8.306;2022-12-26T16:46:10;10.50;99.90
10316;DHT22;5203;48.976;8.306;2022-12-26T16:48:37;10.50;99.90
10316;DHT22;5203;48.976;8.306;2022-12-26T16:51:26;10.40;99.90
10316;DHT22;5203;48.976;8.306;2022-12-26T16:53:52;10.50;99.90
10316;DHT22;5203;48.976;8.306;2022-12-26T16:56:30;10.50;99.90
10316;DHT22;5203;48.976;8.306;2022-12-26T16:59:09;10.50;99.90
10316;DHT22;5203;48.976;8.306;2022-12-26T17:01:35;10.40;99.90
10316;DHT22;5203;48.976;8.306;2022-12-26T17:04:14;10.50;99.90
10316;DHT22;5203;48.976;8.306;2022-12-26T17:07:05;10.50;99.90
10316;DHT22;5203;48.976;8.306;2022-12-26T17:09:40;10.50;99.90
10316;DHT22;5203;48.976;8.306;2022-12-26T17:12:26;10.40;99.90
10316;DHT22;5203;48.976;8.306;2022-12-26T17:14:53;10.50;99.90
10316;DHT22;5203;48.976;8.306;2022-12-26T17:19:52;10.40;99.90
10316;DHT22;5203;48.976;8.306;2022-12-26T17:28:20;10.40;99.90
10316;DHT22;5203;48.976;8.306;2022-12-26T17:30:41;10.40;99.90
10316;DHT22;5203;48.976;8.306;2022-12-26T17:33:28;10.40;99.90
10316;DHT22;5203;48.976;8.306;2022-12-26T17:36:02;10.40;99.90
10316;DHT22;5203;48.976;8.306;2022-12-26T17:38:29;10.50;99.90
10316;DHT22;5203;48.976;8.306;2022-12-26T17:40:59;10.60;99.90
10316;DHT22;5203;48.976;8.306;2022-12-26T17:43:33;10.50;99.90
10316;DHT22;5203;48.976;8.306;2022-12-26T17:46:00;10.50;99.90
10316;DHT22;5203;48.976;8.306;2022-12-26T17:48:26;10.40;99.90
10316;DHT22;5203;48.976;8.306;2022-12-26T17:50:57;10.50;99.90
10316;DHT22;5203;48.976;8.306;2022-12-26T17:53:27;10.50;99.90
10316;DHT22;5203;48.976;8.306;2022-12-26T17:55:57;10.40;99.90
10316;DHT22;5203;48.976;8.306;2022-12-26T17:58:23;10.50;99.90
10316;DHT22;5203;48.976;8.306;2022-12-26T18:00:49;10.50;99.90
10316;DHT22;5203;48.976;8.306;2022-12-26T18:03:15;10.50;99.90
10316;DHT22;5203;48.976;8.306;2022-12-26T18:05:41;10.50;99.90
10316;DHT22;5203;48.976;8.306;2022-12-26T18:08:09;10.40;99.90
10316;DHT22;5203;48.976;8.306;2022-12-26T18:10:37;10.40;99.90
10316;DHT22;5203;48.976;8.306;2022-12-26T18:13:05;10.30;99.90
10316;DHT22;5203;48.976;8.306;2022-12-26T18:15:31;10.30;99.90
10316;DHT22;5203;48.976;8.306;2022-12-26T18:17:56;10.20;99.90
10316;DHT22;5203;48.976;8.306;2022-12-26T18:20:27;10.30;99.90
10316;DHT22;5203;48.976;8.306;2022-12-26T18:22:53;10.20;99.90
10316;DHT22;5203;48.976;8.306;2022-12-26T18:25:21;10.20;99.90
10316;DHT22;5203;48.976;8.306;2022-12-26T18:27:48;10.30;99.90
10316;DHT22;5203;48.976;8.306;2022-12-26T18:30:24;10.40;99.90
10316;DHT22;5203;48.976;8.306;2022-12-26T18:32:51;10.50;99.90
10316;DHT22;5203;48.976;8.306;2022-12-26T18:35:17;10.40;99.90
10316;DHT22;5203;48.976;8.306;2022-12-26T18:37:47;10.40;99.90
10316;DHT22;5203;48.976;8.306;2022-12-26T18:40:36;10.30;99.90
10316;DHT22;5203;48.976;8.306;2022-12-26T18:43:03;10.20;99.90
10316;DHT22;5203;48.976;8.306;2022-12-26T18:45:30;10.20;99.90
10316;DHT22;5203;48.976;8.306;2022-12-26T18:47:56;10.10;99.90
10316;DHT22;5203;48.976;8.306;2022-12-26T18:50:22;10.00;99.90
10316;DHT22;5203;48.976;8.306;2022-12-26T18:52:48;10.00;99.90
10316;DHT22;5203;48.976;8.306;2022-12-26T18:55:14;10.00;99.90
10316;DHT22;5203;48.976;8.306;2022-12-26T18:57:40;9.90;99.90
10316;DHT22;5203;48.976;8.306;2022-12-26T19:00:06;9.90;99.90
10316;DHT22;5203;48.976;8.306;2022-12-26T19:02:34;9.80;99.90
10316;DHT22;5203;48.976;8.306;2022-12-26T19:04:59;9.80;99.90
10316;DHT22;5203;48.976;8.306;2022-12-26T19:07:25;9.70;99.90
10316;DHT22;5203;48.976;8.306;2022-12-26T19:09:51;9.70;99.90
10316;DHT22;5203;48.976;8.306;2022-12-26T19:12:21;9.60;99.90
10316;DHT22;5203;48.976;8.306;2022-12-26T19:14:47;9.60;99.90
10316;DHT22;5203;48.976;8.306;2022-12-26T19:17:13;9.70;99.90
10316;DHT22;5203;48.976;8.306;2022-12-26T19:19:38;9.70;99.90
10316;DHT22;5203;48.976;8.306;2022-12-26T19:22:04;9.60;99.90
10316;DHT22;5203;48.976;8.306;2022-12-26T19:24:30;9.60;99.90
10316;DHT22;5203;48.976;8.306;2022-12-26T19:26:58;9.70;99.90
10316;DHT22;5203;48.976;8.306;2022-12-26T19:29:24;9.60;99.90
10316;DHT22;5203;48.976;8.306;2022-12-26T19:31:50;9.60;99.90
10316;DHT22;5203;48.976;8.306;2022-12-26T19:34:15;9.50;99.90
10316;DHT22;5203;48.976;8.306;2022-12-26T19:36:42;9.50;99.90
10316;DHT22;5203;48.976;8.306;2022-12-26T19:39:07;9.40;99.90
10316;DHT22;5203;48.976;8.306;2022-12-26T19:41:33;9.40;99.90
10316;DHT22;5203;48.976;8.306;2022-12-26T19:43:59;9.40;99.90
10316;DHT22;5203;48.976;8.306;2022-12-26T19:46:26;9.40;99.90
10316;DHT22;5203;48.976;8.306;2022-12-26T19:48:53;9.40;99.90
10316;DHT22;5203;48.976;8.306;2022-12-26T19:51:20;9.40;99.90
10316;DHT22;5203;48.976;8.306;2022-12-26T19:53:46;9.40;99.90
10316;DHT22;5203;48.976;8.306;2022-12-26T19:56:21;9.40;99.90
10316;DHT22;5203;48.976;8.306;2022-12-26T19:58:48;9.20;99.90
10316;DHT22;5203;48.976;8.306;2022-12-26T20:01:16;9.10;99.90
10316;DHT22;5203;48.976;8.306;2022-12-26T20:03:43;9.20;99.90
10316;DHT22;5203;48.976;8.306;2022-12-26T20:06:17;9.10;99.90
10316;DHT22;5203;48.976;8.306;2022-12-26T20:08:45;9.00;99.90
10316;DHT22;5203;48.976;8.306;2022-12-26T20:11:20;9.00;99.90
10316;DHT22;5203;48.976;8.306;2022-12-26T20:13:47;8.90;99.90
10316;DHT22;5203;48.976;8.306;2022-12-26T20:16:20;8.90;99.90
10316;DHT22;5203;48.976;8.306;2022-12-26T20:18:46;8.80;99.90
10316;DHT22;5203;48.976;8.306;2022-12-26T20:21:13;8.80;99.90
10316;DHT22;5203;48.976;8.306;2022-12-26T20:23:39;8.80;99.90
10316;DHT22;5203;48.976;8.306;2022-12-26T20:26:14;8.80;99.90
10316;DHT22;5203;48.976;8.306;2022-12-26T20:28:40;8.80;99.90
10316;DHT22;5203;48.976;8.306;2022-12-26T20:31:09;8.90;99.90
10316;DHT22;5203;48.976;8.306;2022-12-26T20:33:37;8.90;99.90
10316;DHT22;5203;48.976;8.306;2022-12-26T20:36:06;8.90;99.90
10316;DHT22;5203;48.976;8.306;2022-12-26T20:38:32;8.90;99.90
10316;DHT22;5203;48.976;8.306;2022-12-26T20:40:58;8.90;99.90
10316;DHT22;5203;48.976;8.306;2022-12-26T20:43:25;8.80;99.90
10316;DHT22;5203;48.976;8.306;2022-12-26T20:45:51;8.80;99.90
10316;DHT22;5203;48.976;8.306;2022-12-26T20:48:18;8.80;99.90
10316;DHT22;5203;48.976;8.306;2022-12-26T20:50:54;8.70;99.90
10316;DHT22;5203;48.976;8.306;2022-12-26T20:53:20;8.80;99.90
10316;DHT22;5203;48.976;8.306;2022-12-26T20:55:50;8.80;99.90
10316;DHT22;5203;48.976;8.306;2022-12-26T20:58:17;8.80;99.90
10316;DHT22;5203;48.976;8.306;2022-12-26T21:00:42;8.80;99.90
10316;DHT22;5203;48.976;8.306;2022-12-26T21:03:13;8.70;99.90
10316;DHT22;5203;48.976;8.306;2022-12-26T21:05:39;8.70;99.90
10316;DHT22;5203;48.976;8.306;2022-12-26T21:08:05;8.70;99.90
10316;DHT22;5203;48.976;8.306;2022-12-26T21:10:31;8.80;99.90
10316;DHT22;5203;48.976;8.306;2022-12-26T21:12:57;8.80;99.90
10316;DHT22;5203;48.976;8.306;2022-12-26T21:15:23;8.90;99.90
10316;DHT22;5203;48.976;8.306;2022-12-26T21:17:48;8.80;99.90
10316;DHT22;5203;48.976;8.306;2022-12-26T21:20:14;8.80;99.90
10316;DHT22;5203;48.976;8.306;2022-12-26T21:22:41;8.80;99.90
10316;DHT22;5203;48.976;8.306;2022-12-26T21:25:07;8.80;99.90
10316;DHT22;5203;48.976;8.306;2022-12-26T21:27:34;8.80;99.90
10316;DHT22;5203;48.976;8.306;2022-12-26T21:30:00;8.80;99.90
10316;DHT22;5203;48.976;8.306;2022-12-26T21:32:25;8.70;99.90
10316;DHT22;5203;48.976;8.306;2022-12-26T21:34:51;8.60;99.90
10316;DHT22;5203;48.976;8.306;2022-12-26T21:37:17;8.60;99.90
10316;DHT22;5203;48.976;8.306;2022-12-26T21:40:01;8.60;99.90
10316;DHT22;5203;48.976;8.306;2022-12-26T21:42:27;8.50;99.90